sensor_id;sensor_type;location;lat;lon;timestamp;P1;durP1;ratioP1;P2;durP2;ratioP2
24799;SDS011;12897;50.812;4.430;2023-03-11T00:00:35;16.95;;;3.95;;
24799;SDS011;12897;50.812;4.430;2023-03-11T00:03:05;12.45;;;3.17;;
24799;SDS011;12897;50.812;4.430;2023-03-11T00:08:29;14.80;;;3.12;;
24799;SDS011;12897;50.812;4.430;2023-03-11T00:11:01;15.40;;;3.90;;
24799;SDS011;12897;50.812;4.430;2023-03-11T00:13:33;13.13;;;3.05;;
24799;SDS011;12897;50.812;4.430;2023-03-11T00:16:01;9.93;;;2.98;;
24799;SDS011;12897;50.812;4.430;2023-03-11T00:18:37;12.47;;;3.50;;
24799;SDS011;12897;50.812;4.430;2023-03-11T00:23:51;16.97;;;2.95;;
24799;SDS011;12897;50.812;4.430;2023-03-11T00:26:21;12.13;;;3.00;;
24799;SDS011;12897;50.812;4.430;2023-03-11T00:29:00;12.10;;;3.00;;
24799;SDS011;12897;50.812;4.430;2023-03-11T00:31:33;9.55;;;3.17;;
24799;SDS011;12897;50.812;4.430;2023-03-11T00:34:03;8.43;;;3.10;;
24799;SDS011;12897;50.812;4.430;2023-03-11T00:36:31;16.23;;;3.30;;
24799;SDS011;12897;50.812;4.430;2023-03-11T00:39:04;17.15;;;3.35;;
24799;SDS011;12897;50.812;4.430;2023-03-11T00:41:35;19.60;;;3.10;;
24799;SDS011;12897;50.812;4.430;2023-03-11T00:44:08;13.05;;;3.30;;
24799;SDS011;12897;50.812;4.430;2023-03-11T00:46:39;11.38;;;2.90;;
24799;SDS011;12897;50.812;4.430;2023-03-11T00:49:07;13.98;;;3.15;;
24799;SDS011;12897;50.812;4.430;2023-03-11T00:51:36;12.63;;;3.47;;
24799;SDS011;12897;50.812;4.430;2023-03-11T00:54:03;18.80;;;4.03;;
24799;SDS011;12897;50.812;4.430;2023-03-11T00:56:31;10.25;;;3.00;;
24799;SDS011;12897;50.812;4.430;2023-03-11T00:59:07;10.25;;;3.22;;
24799;SDS011;12897;50.812;4.430;2023-03-11T01:04:02;21.30;;;3.27;;
24799;SDS011;12897;50.812;4.430;2023-03-11T01:06:26;8.27;;;3.00;;
24799;SDS011;12897;50.812;4.430;2023-03-11T01:08:58;12.93;;;3.77;;
24799;SDS011;12897;50.812;4.430;2023-03-11T01:11:29;12.60;;;3.08;;
24799;SDS011;12897;50.812;4.430;2023-03-11T01:13:59;15.10;;;3.25;;
24799;SDS011;12897;50.812;4.430;2023-03-11T01:16:29;10.80;;;3.47;;
24799;SDS011;12897;50.812;4.430;2023-03-11T01:18:58;17.47;;;3.57;;
24799;SDS011;12897;50.812;4.430;2023-03-11T01:21:30;19.90;;;3.77;;
24799;SDS011;12897;50.812;4.430;2023-03-11T01:23:59;19.82;;;3.80;;
24799;SDS011;12897;50.812;4.430;2023-03-11T01:26:23;9.08;;;3.45;;
24799;SDS011;12897;50.812;4.430;2023-03-11T01:28:53;14.53;;;3.42;;
24799;SDS011;12897;50.812;4.430;2023-03-11T01:31:30;15.15;;;3.90;;
24799;SDS011;12897;50.812;4.430;2023-03-11T01:33:59;18.20;;;4.28;;
24799;SDS011;12897;50.812;4.430;2023-03-11T01:36:28;13.63;;;3.43;;
24799;SDS011;12897;50.812;4.430;2023-03-11T01:38:57;17.20;;;4.00;;
24799;SDS011;12897;50.812;4.430;2023-03-11T01:41:26;16.35;;;3.45;;
24799;SDS011;12897;50.812;4.430;2023-03-11T01:43:58;11.90;;;3.62;;
24799;SDS011;12897;50.812;4.430;2023-03-11T01:49:23;21.73;;;4.22;;
24799;SDS011;12897;50.812;4.430;2023-03-11T01:51:53;14.45;;;4.05;;
24799;SDS011;12897;50.812;4.430;2023-03-11T01:54:32;22.60;;;4.47;;
24799;SDS011;12897;50.812;4.430;2023-03-11T01:57:04;11.80;;;3.85;;
24799;SDS011;12897;50.812;4.430;2023-03-11T01:59:35;15.90;;;3.65;;
24799;SDS011;12897;50.812;4.430;2023-03-11T02:02:19;20.02;;;4.62;;
24799;SDS011;12897;50.812;4.430;2023-03-11T02:04:49;20.45;;;4.17;;
24799;SDS011;12897;50.812;4.430;2023-03-11T02:07:14;12.00;;;3.92;;
24799;SDS011;12897;50.812;4.430;2023-03-11T02:09:53;12.93;;;4.00;;
24799;SDS011;12897;50.812;4.430;2023-03-11T02:12:12;17.12;;;4.05;;
24799;SDS011;12897;50.812;4.430;2023-03-11T02:14:51;17.35;;;3.87;;
24799;SDS011;12897;50.812;4.430;2023-03-11T02:17:18;17.80;;;4.35;;
24799;SDS011;12897;50.812;4.430;2023-03-11T02:20:01;17.60;;;3.90;;
24799;SDS011;12897;50.812;4.430;2023-03-11T02:22:30;15.38;;;4.00;;
24799;SDS011;12897;50.812;4.430;2023-03-11T02:27:35;20.45;;;4.00;;
24799;SDS011;12897;50.812;4.430;2023-03-11T02:30:11;17.15;;;3.62;;
24799;SDS011;12897;50.812;4.430;2023-03-11T02:32:39;14.70;;;4.40;;
24799;SDS011;12897;50.812;4.430;2023-03-11T02:35:09;17.70;;;4.40;;
24799;SDS011;12897;50.812;4.430;2023-03-11T02:37:42;15.88;;;4.35;;
24799;SDS011;12897;50.812;4.430;2023-03-11T02:42:58;17.37;;;4.15;;
24799;SDS011;12897;50.812;4.430;2023-03-11T02:45:28;14.95;;;3.98;;
24799;SDS011;12897;50.812;4.430;2023-03-11T02:48:01;16.37;;;3.70;;
24799;SDS011;12897;50.812;4.430;2023-03-11T02:50:27;17.12;;;4.42;;
24799;SDS011;12897;50.812;4.430;2023-03-11T02:52:58;12.65;;;3.72;;
24799;SDS011;12897;50.812;4.430;2023-03-11T02:55:26;17.75;;;4.50;;
24799;SDS011;12897;50.812;4.430;2023-03-11T02:57:58;17.50;;;4.03;;
24799;SDS011;12897;50.812;4.430;2023-03-11T03:00:28;15.55;;;3.92;;
24799;SDS011;12897;50.812;4.430;2023-03-11T03:02:57;17.55;;;4.33;;
24799;SDS011;12897;50.812;4.430;2023-03-11T03:05:26;19.52;;;4.12;;
24799;SDS011;12897;50.812;4.430;2023-03-11T03:07:56;14.38;;;4.83;;
24799;SDS011;12897;50.812;4.430;2023-03-11T03:10:25;12.17;;;4.30;;
24799;SDS011;12897;50.812;4.430;2023-03-11T03:12:56;18.92;;;4.47;;
24799;SDS011;12897;50.812;4.430;2023-03-11T03:15:27;14.95;;;4.28;;
24799;SDS011;12897;50.812;4.430;2023-03-11T03:17:59;14.23;;;4.53;;
24799;SDS011;12897;50.812;4.430;2023-03-11T03:20:27;14.28;;;3.70;;
24799;SDS011;12897;50.812;4.430;2023-03-11T03:22:57;18.27;;;4.03;;
24799;SDS011;12897;50.812;4.430;2023-03-11T03:25:30;16.80;;;4.65;;
24799;SDS011;12897;50.812;4.430;2023-03-11T03:27:55;20.48;;;3.92;;
24799;SDS011;12897;50.812;4.430;2023-03-11T03:30:23;18.15;;;4.33;;
24799;SDS011;12897;50.812;4.430;2023-03-11T03:32:54;17.77;;;3.92;;
24799;SDS011;12897;50.812;4.430;2023-03-11T03:35:22;14.40;;;3.92;;
24799;SDS011;12897;50.812;4.430;2023-03-11T03:37:49;17.45;;;4.37;;
24799;SDS011;12897;50.812;4.430;2023-03-11T03:40:19;12.33;;;3.85;;
24799;SDS011;12897;50.812;4.430;2023-03-11T03:43:00;19.00;;;4.03;;
24799;SDS011;12897;50.812;4.430;2023-03-11T03:45:29;19.80;;;4.87;;
24799;SDS011;12897;50.812;4.430;2023-03-11T03:47:53;14.50;;;3.90;;
24799;SDS011;12897;50.812;4.430;2023-03-11T03:50:28;16.85;;;3.50;;
24799;SDS011;12897;50.812;4.430;2023-03-11T03:52:58;14.90;;;4.05;;
24799;SDS011;12897;50.812;4.430;2023-03-11T03:57:56;11.10;;;3.47;;
24799;SDS011;12897;50.812;4.430;2023-03-11T04:00:25;13.05;;;3.90;;
24799;SDS011;12897;50.812;4.430;2023-03-11T04:02:55;18.35;;;4.15;;
24799;SDS011;12897;50.812;4.430;2023-03-11T04:05:23;12.85;;;3.92;;
24799;SDS011;12897;50.812;4.430;2023-03-11T04:07:52;15.40;;;4.37;;
24799;SDS011;12897;50.812;4.430;2023-03-11T04:10:27;15.98;;;4.25;;
24799;SDS011;12897;50.812;4.430;2023-03-11T04:12:55;12.05;;;3.85;;
24799;SDS011;12897;50.812;4.430;2023-03-11T04:15:24;16.57;;;4.35;;
24799;SDS011;12897;50.812;4.430;2023-03-11T04:17:56;22.20;;;4.40;;
24799;SDS011;12897;50.812;4.430;2023-03-11T04:20:28;15.10;;;4.37;;
24799;SDS011;12897;50.812;4.430;2023-03-11T04:22:57;17.73;;;4.40;;
24799;SDS011;12897;50.812;4.430;2023-03-11T04:25:26;14.85;;;3.47;;
24799;SDS011;12897;50.812;4.430;2023-03-11T04:27:57;15.45;;;4.45;;
24799;SDS011;12897;50.812;4.430;2023-03-11T04:30:27;18.52;;;4.85;;
24799;SDS011;12897;50.812;4.430;2023-03-11T04:32:55;16.55;;;4.50;;
24799;SDS011;12897;50.812;4.430;2023-03-11T04:35:23;18.12;;;4.85;;
24799;SDS011;12897;50.812;4.430;2023-03-11T04:37:50;12.10;;;4.17;;
24799;SDS011;12897;50.812;4.430;2023-03-11T04:40:18;10.95;;;3.72;;
24799;SDS011;12897;50.812;4.430;2023-03-11T04:42:45;27.35;;;4.67;;
24799;SDS011;12897;50.812;4.430;2023-03-11T04:45:14;14.77;;;4.63;;
24799;SDS011;12897;50.812;4.430;2023-03-11T04:47:47;17.95;;;3.85;;
24799;SDS011;12897;50.812;4.430;2023-03-11T04:50:19;15.40;;;4.37;;
24799;SDS011;12897;50.812;4.430;2023-03-11T04:52:45;14.20;;;4.40;;
24799;SDS011;12897;50.812;4.430;2023-03-11T04:55:19;15.23;;;4.20;;
24799;SDS011;12897;50.812;4.430;2023-03-11T04:57:42;26.45;;;4.87;;
24799;SDS011;12897;50.812;4.430;2023-03-11T05:00:12;12.23;;;4.40;;
24799;SDS011;12897;50.812;4.430;2023-03-11T05:02:46;15.60;;;4.60;;
24799;SDS011;12897;50.812;4.430;2023-03-11T05:05:12;12.10;;;4.25;;
24799;SDS011;12897;50.812;4.430;2023-03-11T05:07:41;13.55;;;3.83;;
24799;SDS011;12897;50.812;4.430;2023-03-11T05:10:13;14.77;;;4.47;;
24799;SDS011;12897;50.812;4.430;2023-03-11T05:12:41;17.23;;;4.55;;
24799;SDS011;12897;50.812;4.430;2023-03-11T05:15:09;19.02;;;4.40;;
24799;SDS011;12897;50.812;4.430;2023-03-11T05:17:38;14.43;;;4.67;;
24799;SDS011;12897;50.812;4.430;2023-03-11T05:20:09;13.18;;;4.12;;
24799;SDS011;12897;50.812;4.430;2023-03-11T05:22:37;14.83;;;4.78;;
24799;SDS011;12897;50.812;4.430;2023-03-11T05:25:06;9.50;;;4.47;;
24799;SDS011;12897;50.812;4.430;2023-03-11T05:27:34;16.97;;;4.40;;
24799;SDS011;12897;50.812;4.430;2023-03-11T05:30:02;19.12;;;4.80;;
24799;SDS011;12897;50.812;4.430;2023-03-11T05:32:30;16.02;;;4.65;;
24799;SDS011;12897;50.812;4.430;2023-03-11T05:34:59;15.63;;;4.50;;
24799;SDS011;12897;50.812;4.430;2023-03-11T05:37:29;17.27;;;4.53;;
24799;SDS011;12897;50.812;4.430;2023-03-11T05:40:05;16.90;;;4.55;;
24799;SDS011;12897;50.812;4.430;2023-03-11T05:42:35;15.43;;;4.90;;
24799;SDS011;12897;50.812;4.430;2023-03-11T05:45:05;14.80;;;4.83;;
24799;SDS011;12897;50.812;4.430;2023-03-11T05:47:33;14.60;;;4.80;;
24799;SDS011;12897;50.812;4.430;2023-03-11T05:50:04;15.55;;;5.62;;
24799;SDS011;12897;50.812;4.430;2023-03-11T05:52:34;16.65;;;6.15;;
24799;SDS011;12897;50.812;4.430;2023-03-11T05:55:03;15.07;;;4.60;;
24799;SDS011;12897;50.812;4.430;2023-03-11T05:57:31;16.65;;;5.17;;
24799;SDS011;12897;50.812;4.430;2023-03-11T06:00:00;21.10;;;5.00;;
24799;SDS011;12897;50.812;4.430;2023-03-11T06:02:34;27.40;;;5.22;;
24799;SDS011;12897;50.812;4.430;2023-03-11T06:05:01;19.52;;;4.87;;
24799;SDS011;12897;50.812;4.430;2023-03-11T06:07:29;13.53;;;5.25;;
24799;SDS011;12897;50.812;4.430;2023-03-11T06:09:59;14.98;;;4.47;;
24799;SDS011;12897;50.812;4.430;2023-03-11T06:12:32;15.30;;;5.80;;
24799;SDS011;12897;50.812;4.430;2023-03-11T06:15:02;22.05;;;5.03;;
24799;SDS011;12897;50.812;4.430;2023-03-11T06:17:38;16.55;;;5.58;;
24799;SDS011;12897;50.812;4.430;2023-03-11T06:20:06;19.27;;;5.67;;
24799;SDS011;12897;50.812;4.430;2023-03-11T06:22:36;19.70;;;5.87;;
24799;SDS011;12897;50.812;4.430;2023-03-11T06:25:07;20.62;;;5.10;;
24799;SDS011;12897;50.812;4.430;2023-03-11T06:27:39;14.73;;;5.55;;
24799;SDS011;12897;50.812;4.430;2023-03-11T06:30:10;18.80;;;5.67;;
24799;SDS011;12897;50.812;4.430;2023-03-11T06:32:38;16.30;;;5.87;;
24799;SDS011;12897;50.812;4.430;2023-03-11T06:35:06;14.98;;;5.97;;
24799;SDS011;12897;50.812;4.430;2023-03-11T06:37:37;12.53;;;4.97;;
24799;SDS011;12897;50.812;4.430;2023-03-11T06:40:06;18.57;;;5.35;;
24799;SDS011;12897;50.812;4.430;2023-03-11T06:42:37;22.60;;;5.80;;
24799;SDS011;12897;50.812;4.430;2023-03-11T06:45:05;19.42;;;5.37;;
24799;SDS011;12897;50.812;4.430;2023-03-11T06:47:36;24.85;;;5.90;;
24799;SDS011;12897;50.812;4.430;2023-03-11T06:50:04;15.70;;;6.03;;
24799;SDS011;12897;50.812;4.430;2023-03-11T06:52:34;26.15;;;5.87;;
24799;SDS011;12897;50.812;4.430;2023-03-11T06:55:01;14.13;;;5.53;;
24799;SDS011;12897;50.812;4.430;2023-03-11T06:57:29;25.92;;;6.08;;
24799;SDS011;12897;50.812;4.430;2023-03-11T06:59:59;13.10;;;5.03;;
24799;SDS011;12897;50.812;4.430;2023-03-11T07:02:30;14.68;;;5.10;;
24799;SDS011;12897;50.812;4.430;2023-03-11T07:04:58;15.25;;;5.33;;
24799;SDS011;12897;50.812;4.430;2023-03-11T07:07:26;13.20;;;5.85;;
24799;SDS011;12897;50.812;4.430;2023-03-11T07:09:54;16.85;;;6.65;;
24799;SDS011;12897;50.812;4.430;2023-03-11T07:12:23;13.75;;;6.17;;
24799;SDS011;12897;50.812;4.430;2023-03-11T07:14:54;19.82;;;5.75;;
24799;SDS011;12897;50.812;4.430;2023-03-11T07:17:23;17.00;;;6.72;;
24799;SDS011;12897;50.812;4.430;2023-03-11T07:22:21;19.07;;;6.72;;
24799;SDS011;12897;50.812;4.430;2023-03-11T07:24:50;17.55;;;6.75;;
24799;SDS011;12897;50.812;4.430;2023-03-11T07:27:18;14.83;;;5.80;;
24799;SDS011;12897;50.812;4.430;2023-03-11T07:29:46;16.67;;;6.33;;
24799;SDS011;12897;50.812;4.430;2023-03-11T07:32:15;15.90;;;6.50;;
24799;SDS011;12897;50.812;4.430;2023-03-11T07:34:44;21.10;;;7.10;;
24799;SDS011;12897;50.812;4.430;2023-03-11T07:37:17;16.07;;;6.90;;
24799;SDS011;12897;50.812;4.430;2023-03-11T07:39:41;19.73;;;6.72;;
24799;SDS011;12897;50.812;4.430;2023-03-11T07:42:10;18.17;;;6.63;;
24799;SDS011;12897;50.812;4.430;2023-03-11T07:44:40;20.32;;;6.22;;
24799;SDS011;12897;50.812;4.430;2023-03-11T07:47:08;13.25;;;6.10;;
24799;SDS011;12897;50.812;4.430;2023-03-11T07:49:36;18.10;;;6.70;;
24799;SDS011;12897;50.812;4.430;2023-03-11T07:52:03;19.55;;;6.70;;
24799;SDS011;12897;50.812;4.430;2023-03-11T07:54:33;20.77;;;7.55;;
24799;SDS011;12897;50.812;4.430;2023-03-11T07:57:00;22.32;;;6.92;;
24799;SDS011;12897;50.812;4.430;2023-03-11T07:59:31;14.93;;;7.22;;
24799;SDS011;12897;50.812;4.430;2023-03-11T08:01:58;21.25;;;7.15;;
24799;SDS011;12897;50.812;4.430;2023-03-11T08:04:28;22.37;;;6.78;;
24799;SDS011;12897;50.812;4.430;2023-03-11T08:06:58;21.33;;;7.25;;
24799;SDS011;12897;50.812;4.430;2023-03-11T08:09:27;19.93;;;7.37;;
24799;SDS011;12897;50.812;4.430;2023-03-11T08:12:00;17.92;;;7.47;;
24799;SDS011;12897;50.812;4.430;2023-03-11T08:14:24;23.63;;;8.37;;
24799;SDS011;12897;50.812;4.430;2023-03-11T08:16:54;17.50;;;8.25;;
24799;SDS011;12897;50.812;4.430;2023-03-11T08:19:27;23.47;;;7.80;;
24799;SDS011;12897;50.812;4.430;2023-03-11T08:21:51;23.92;;;8.28;;
24799;SDS011;12897;50.812;4.430;2023-03-11T08:24:18;23.35;;;7.65;;
24799;SDS011;12897;50.812;4.430;2023-03-11T08:27:00;20.08;;;8.08;;
24799;SDS011;12897;50.812;4.430;2023-03-11T08:29:15;21.75;;;7.37;;
24799;SDS011;12897;50.812;4.430;2023-03-11T08:31:47;20.48;;;7.65;;
24799;SDS011;12897;50.812;4.430;2023-03-11T08:34:13;19.57;;;8.00;;
24799;SDS011;12897;50.812;4.430;2023-03-11T08:36:45;19.85;;;7.78;;
24799;SDS011;12897;50.812;4.430;2023-03-11T08:39:15;20.45;;;7.83;;
24799;SDS011;12897;50.812;4.430;2023-03-11T08:41:44;19.77;;;7.92;;
24799;SDS011;12897;50.812;4.430;2023-03-11T08:44:11;19.37;;;7.00;;
24799;SDS011;12897;50.812;4.430;2023-03-11T08:46:39;24.25;;;7.05;;
24799;SDS011;12897;50.812;4.430;2023-03-11T08:49:08;25.65;;;7.17;;
24799;SDS011;12897;50.812;4.430;2023-03-11T08:51:36;21.48;;;5.20;;
24799;SDS011;12897;50.812;4.430;2023-03-11T08:54:03;16.82;;;5.33;;
24799;SDS011;12897;50.812;4.430;2023-03-11T08:59:05;21.02;;;4.87;;
24799;SDS011;12897;50.812;4.430;2023-03-11T09:01:32;23.55;;;5.55;;
24799;SDS011;12897;50.812;4.430;2023-03-11T09:04:02;18.65;;;4.92;;
24799;SDS011;12897;50.812;4.430;2023-03-11T09:06:31;13.65;;;3.35;;
24799;SDS011;12897;50.812;4.430;2023-03-11T09:08:59;7.25;;;2.17;;
24799;SDS011;12897;50.812;4.430;2023-03-11T09:11:28;15.17;;;3.40;;
24799;SDS011;12897;50.812;4.430;2023-03-11T09:13:55;9.70;;;2.17;;
24799;SDS011;12897;50.812;4.430;2023-03-11T09:16:23;14.80;;;2.50;;
24799;SDS011;12897;50.812;4.430;2023-03-11T09:18:56;9.08;;;2.25;;
24799;SDS011;12897;50.812;4.430;2023-03-11T09:21:20;15.13;;;2.17;;
24799;SDS011;12897;50.812;4.430;2023-03-11T09:23:49;8.60;;;2.00;;
24799;SDS011;12897;50.812;4.430;2023-03-11T09:26:18;8.28;;;2.08;;
24799;SDS011;12897;50.812;4.430;2023-03-11T09:28:47;12.90;;;1.95;;
24799;SDS011;12897;50.812;4.430;2023-03-11T09:31:18;10.48;;;2.00;;
24799;SDS011;12897;50.812;4.430;2023-03-11T09:33:44;10.50;;;2.20;;
24799;SDS011;12897;50.812;4.430;2023-03-11T09:36:13;16.30;;;1.95;;
24799;SDS011;12897;50.812;4.430;2023-03-11T09:38:45;9.38;;;2.00;;
24799;SDS011;12897;50.812;4.430;2023-03-11T09:44:01;7.37;;;1.92;;
24799;SDS011;12897;50.812;4.430;2023-03-11T09:57:53;13.98;;;1.50;;
24799;SDS011;12897;50.812;4.430;2023-03-11T10:00:23;13.93;;;2.20;;
24799;SDS011;12897;50.812;4.430;2023-03-11T10:02:51;6.60;;;1.70;;
24799;SDS011;12897;50.812;4.430;2023-03-11T10:05:25;9.63;;;2.00;;
24799;SDS011;12897;50.812;4.430;2023-03-11T10:08:40;12.37;;;2.12;;
24799;SDS011;12897;50.812;4.430;2023-03-11T10:10:36;13.08;;;2.27;;
24799;SDS011;12897;50.812;4.430;2023-03-11T10:29:01;6.60;;;2.30;;
24799;SDS011;12897;50.812;4.430;2023-03-11T10:34:21;12.25;;;2.50;;
24799;SDS011;12897;50.812;4.430;2023-03-11T10:36:58;9.20;;;2.00;;
24799;SDS011;12897;50.812;4.430;2023-03-11T10:39:29;11.63;;;2.12;;
24799;SDS011;12897;50.812;4.430;2023-03-11T10:42:01;9.05;;;2.33;;
24799;SDS011;12897;50.812;4.430;2023-03-11T10:44:36;12.28;;;2.30;;
24799;SDS011;12897;50.812;4.430;2023-03-11T10:47:05;23.27;;;2.87;;
24799;SDS011;12897;50.812;4.430;2023-03-11T10:49:36;11.73;;;2.33;;
24799;SDS011;12897;50.812;4.430;2023-03-11T10:52:06;10.70;;;2.17;;
24799;SDS011;12897;50.812;4.430;2023-03-11T10:54:43;6.50;;;1.70;;
24799;SDS011;12897;50.812;4.430;2023-03-11T10:59:53;12.40;;;2.20;;
24799;SDS011;12897;50.812;4.430;2023-03-11T11:02:26;12.03;;;2.60;;
24799;SDS011;12897;50.812;4.430;2023-03-11T11:08:00;13.40;;;1.98;;
24799;SDS011;12897;50.812;4.430;2023-03-11T11:15:41;14.25;;;2.60;;
24799;SDS011;12897;50.812;4.430;2023-03-11T11:18:24;16.07;;;2.87;;
24799;SDS011;12897;50.812;4.430;2023-03-11T11:20:55;12.47;;;2.15;;
24799;SDS011;12897;50.812;4.430;2023-03-11T11:26:20;9.75;;;2.27;;
24799;SDS011;12897;50.812;4.430;2023-03-11T11:29:06;12.75;;;2.27;;
24799;SDS011;12897;50.812;4.430;2023-03-11T11:31:42;8.55;;;2.10;;
24799;SDS011;12897;50.812;4.430;2023-03-11T11:34:33;10.80;;;2.02;;
24799;SDS011;12897;50.812;4.430;2023-03-11T11:36:55;15.65;;;2.35;;
24799;SDS011;12897;50.812;4.430;2023-03-11T11:41:54;23.47;;;2.85;;
24799;SDS011;12897;50.812;4.430;2023-03-11T11:44:23;13.25;;;2.30;;
24799;SDS011;12897;50.812;4.430;2023-03-11T11:46:54;12.53;;;2.60;;
24799;SDS011;12897;50.812;4.430;2023-03-11T11:49:24;11.45;;;2.90;;
24799;SDS011;12897;50.812;4.430;2023-03-11T11:52:05;12.03;;;3.08;;
24799;SDS011;12897;50.812;4.430;2023-03-11T11:54:43;10.65;;;2.10;;
24799;SDS011;12897;50.812;4.430;2023-03-11T11:57:15;19.87;;;2.50;;
24799;SDS011;12897;50.812;4.430;2023-03-11T11:59:45;8.80;;;1.57;;
24799;SDS011;12897;50.812;4.430;2023-03-11T12:02:29;15.90;;;2.12;;
24799;SDS011;12897;50.812;4.430;2023-03-11T12:08:07;12.73;;;2.20;;
24799;SDS011;12897;50.812;4.430;2023-03-11T12:10:49;10.85;;;2.00;;
24799;SDS011;12897;50.812;4.430;2023-03-11T12:18:48;13.48;;;2.75;;
24799;SDS011;12897;50.812;4.430;2023-03-11T12:21:23;16.82;;;2.10;;
24799;SDS011;12897;50.812;4.430;2023-03-11T12:26:35;16.75;;;2.00;;
24799;SDS011;12897;50.812;4.430;2023-03-11T12:31:54;9.63;;;1.85;;
24799;SDS011;12897;50.812;4.430;2023-03-11T12:34:22;18.75;;;2.00;;
24799;SDS011;12897;50.812;4.430;2023-03-11T12:36:51;9.53;;;2.10;;
24799;SDS011;12897;50.812;4.430;2023-03-11T12:39:26;12.07;;;1.80;;
24799;SDS011;12897;50.812;4.430;2023-03-11T12:44:44;10.75;;;1.65;;
24799;SDS011;12897;50.812;4.430;2023-03-11T12:49:50;9.60;;;1.80;;
24799;SDS011;12897;50.812;4.430;2023-03-11T12:52:26;14.98;;;2.25;;
24799;SDS011;12897;50.812;4.430;2023-03-11T12:57:33;8.38;;;1.60;;
24799;SDS011;12897;50.812;4.430;2023-03-11T13:03:06;11.12;;;1.90;;
24799;SDS011;12897;50.812;4.430;2023-03-11T13:05:53;8.55;;;1.60;;
24799;SDS011;12897;50.812;4.430;2023-03-11T13:11:26;6.78;;;1.82;;
24799;SDS011;12897;50.812;4.430;2023-03-11T13:16:56;14.23;;;2.40;;
24799;SDS011;12897;50.812;4.430;2023-03-11T13:21:53;17.92;;;2.35;;
24799;SDS011;12897;50.812;4.430;2023-03-11T13:34:53;9.18;;;2.08;;
24799;SDS011;12897;50.812;4.430;2023-03-11T13:37:22;10.05;;;2.62;;
24799;SDS011;12897;50.812;4.430;2023-03-11T13:42:32;14.40;;;2.33;;
24799;SDS011;12897;50.812;4.430;2023-03-11T13:45:00;9.15;;;2.00;;
24799;SDS011;12897;50.812;4.430;2023-03-11T13:47:30;12.82;;;2.17;;
24799;SDS011;12897;50.812;4.430;2023-03-11T13:50:06;10.93;;;2.10;;
24799;SDS011;12897;50.812;4.430;2023-03-11T13:52:48;10.48;;;2.15;;
24799;SDS011;12897;50.812;4.430;2023-03-11T13:55:21;15.03;;;2.22;;
24799;SDS011;12897;50.812;4.430;2023-03-11T13:57:51;10.10;;;1.85;;
24799;SDS011;12897;50.812;4.430;2023-03-11T14:00:21;5.33;;;1.75;;
24799;SDS011;12897;50.812;4.430;2023-03-11T14:02:53;12.68;;;2.15;;
24799;SDS011;12897;50.812;4.430;2023-03-11T14:05:28;11.43;;;2.20;;
24799;SDS011;12897;50.812;4.430;2023-03-11T14:10:57;14.58;;;2.52;;
24799;SDS011;12897;50.812;4.430;2023-03-11T14:16:12;7.67;;;2.12;;
24799;SDS011;12897;50.812;4.430;2023-03-11T14:18:39;10.78;;;2.05;;
24799;SDS011;12897;50.812;4.430;2023-03-11T14:21:16;10.55;;;2.00;;
24799;SDS011;12897;50.812;4.430;2023-03-11T14:23:42;13.90;;;2.42;;
24799;SDS011;12897;50.812;4.430;2023-03-11T14:26:19;11.20;;;2.25;;
24799;SDS011;12897;50.812;4.430;2023-03-11T14:28:52;14.53;;;1.70;;
24799;SDS011;12897;50.812;4.430;2023-03-11T14:31:29;7.50;;;2.15;;
24799;SDS011;12897;50.812;4.430;2023-03-11T14:34:01;13.55;;;2.55;;
24799;SDS011;12897;50.812;4.430;2023-03-11T14:37:14;14.18;;;1.85;;
24799;SDS011;12897;50.812;4.430;2023-03-11T14:39:31;7.50;;;1.85;;
24799;SDS011;12897;50.812;4.430;2023-03-11T14:42:02;6.58;;;2.35;;
24799;SDS011;12897;50.812;4.430;2023-03-11T14:44:35;6.70;;;1.92;;
24799;SDS011;12897;50.812;4.430;2023-03-11T14:47:29;13.95;;;2.15;;
24799;SDS011;12897;50.812;4.430;2023-03-11T14:49:41;20.32;;;2.80;;
24799;SDS011;12897;50.812;4.430;2023-03-11T14:52:14;4.62;;;1.70;;
24799;SDS011;12897;50.812;4.430;2023-03-11T14:54:43;7.92;;;1.82;;
24799;SDS011;12897;50.812;4.430;2023-03-11T14:59:50;8.78;;;1.90;;
24799;SDS011;12897;50.812;4.430;2023-03-11T15:02:29;8.18;;;1.80;;
24799;SDS011;12897;50.812;4.430;2023-03-11T15:04:54;8.30;;;2.05;;
24799;SDS011;12897;50.812;4.430;2023-03-11T15:07:25;9.90;;;2.00;;
24799;SDS011;12897;50.812;4.430;2023-03-11T15:09:54;9.43;;;2.58;;
24799;SDS011;12897;50.812;4.430;2023-03-11T15:12:31;11.35;;;1.87;;
24799;SDS011;12897;50.812;4.430;2023-03-11T15:15:18;9.23;;;1.82;;
24799;SDS011;12897;50.812;4.430;2023-03-11T15:17:52;8.68;;;2.27;;
24799;SDS011;12897;50.812;4.430;2023-03-11T15:20:31;12.20;;;1.90;;
24799;SDS011;12897;50.812;4.430;2023-03-11T15:23:01;14.50;;;3.08;;
24799;SDS011;12897;50.812;4.430;2023-03-11T15:25:31;16.87;;;2.45;;
24799;SDS011;12897;50.812;4.430;2023-03-11T15:28:22;6.90;;;2.10;;
24799;SDS011;12897;50.812;4.430;2023-03-11T15:33:47;14.68;;;2.40;;
24799;SDS011;12897;50.812;4.430;2023-03-11T15:36:33;10.80;;;1.72;;
24799;SDS011;12897;50.812;4.430;2023-03-11T15:42:25;5.10;;;1.92;;
24799;SDS011;12897;50.812;4.430;2023-03-11T15:44:27;12.85;;;1.98;;
24799;SDS011;12897;50.812;4.430;2023-03-11T15:46:51;7.75;;;2.20;;
24799;SDS011;12897;50.812;4.430;2023-03-11T15:49:19;10.03;;;2.22;;
24799;SDS011;12897;50.812;4.430;2023-03-11T15:51:47;13.95;;;2.20;;
24799;SDS011;12897;50.812;4.430;2023-03-11T15:54:14;15.03;;;2.00;;
24799;SDS011;12897;50.812;4.430;2023-03-11T15:56:42;8.98;;;1.95;;
24799;SDS011;12897;50.812;4.430;2023-03-11T15:59:11;10.80;;;1.82;;
24799;SDS011;12897;50.812;4.430;2023-03-11T16:01:45;10.98;;;2.10;;
24799;SDS011;12897;50.812;4.430;2023-03-11T16:04:14;19.57;;;2.12;;
24799;SDS011;12897;50.812;4.430;2023-03-11T16:06:43;23.83;;;8.90;;
24799;SDS011;12897;50.812;4.430;2023-03-11T16:09:12;12.45;;;3.02;;
24799;SDS011;12897;50.812;4.430;2023-03-11T16:11:41;15.98;;;2.58;;
24799;SDS011;12897;50.812;4.430;2023-03-11T16:14:13;9.80;;;2.30;;
24799;SDS011;12897;50.812;4.430;2023-03-11T16:16:43;11.78;;;1.90;;
24799;SDS011;12897;50.812;4.430;2023-03-11T16:19:11;13.35;;;2.30;;
24799;SDS011;12897;50.812;4.430;2023-03-11T16:21:40;10.85;;;2.20;;
24799;SDS011;12897;50.812;4.430;2023-03-11T16:24:14;11.80;;;1.98;;
24799;SDS011;12897;50.812;4.430;2023-03-11T16:26:43;8.03;;;2.15;;
24799;SDS011;12897;50.812;4.430;2023-03-11T16:29:11;23.77;;;2.62;;
24799;SDS011;12897;50.812;4.430;2023-03-11T16:31:40;8.63;;;2.70;;
24799;SDS011;12897;50.812;4.430;2023-03-11T16:34:08;7.67;;;1.90;;
24799;SDS011;12897;50.812;4.430;2023-03-11T16:36:35;5.50;;;1.60;;
24799;SDS011;12897;50.812;4.430;2023-03-11T16:39:03;14.78;;;2.00;;
24799;SDS011;12897;50.812;4.430;2023-03-11T16:41:38;11.68;;;2.10;;
24799;SDS011;12897;50.812;4.430;2023-03-11T16:44:01;15.80;;;2.95;;
24799;SDS011;12897;50.812;4.430;2023-03-11T16:46:28;21.68;;;2.80;;
24799;SDS011;12897;50.812;4.430;2023-03-11T16:48:57;10.47;;;2.20;;
24799;SDS011;12897;50.812;4.430;2023-03-11T16:51:27;15.20;;;2.53;;
24799;SDS011;12897;50.812;4.430;2023-03-11T16:53:54;15.10;;;2.42;;
24799;SDS011;12897;50.812;4.430;2023-03-11T16:56:22;10.72;;;2.27;;
24799;SDS011;12897;50.812;4.430;2023-03-11T16:58:49;20.90;;;2.20;;
24799;SDS011;12897;50.812;4.430;2023-03-11T17:01:22;15.23;;;3.65;;
24799;SDS011;12897;50.812;4.430;2023-03-11T17:03:47;15.32;;;2.47;;
24799;SDS011;12897;50.812;4.430;2023-03-11T17:06:22;14.80;;;2.30;;
24799;SDS011;12897;50.812;4.430;2023-03-11T17:08:47;12.87;;;2.37;;